Terminal Aerodrome Forecast
Issued by NWS

Home | Current Version | Previous Version | Graphics & Text | Print | Product List | Glossary On
Versions: 1 2 3 4 5 6 7 8 9 10 11 12 13 14 15 16
000
FTUS43 KICT 291700
TAFSLN
TAF
KSLN 291720Z 2918/3018 21009KT P6SM FEW040 SCT150
     FM292100 25013KT P6SM FEW060 SCT150
     FM300000 27006KT P6SM SCT100=

USA.gov is the U.S. government's official web portal to all federal, state and local government web resources and services.